17:39
Airports
History
Links
Donate
Help keep this website running!
PayPal
Bitcoin
This page is community maintained. The information is intended for PC simulator navigation or reference.
Always use approved charts for navigation.
ENEV
EVENES
EVENES (ENEV)
Nordland, Norway (8536)
(C)
Lat/Lng:68° 29' 28.68" N / 16° 40' 41.19" E
68.4913 / 16.678109
Elevation:84'ft / 26mMSL
ID / ICAO:ENEV
Runways:1
Longest:17-35
Asphalt 2,800m / 9,187ft
Controlled:Yes
METAR17:20 GMT 2017-09-21
Altimeter: 30.27
Visibility: 6.2 statute miles
Wind: 8 knots (from 170°)
Temp: 11°c / 52°f
Humidity: 53.8%

METAR: ENEV 211720Z 17008KT CAVOK 11/02 Q1025 RMK WIND 1400FT 15010KT

(Powered by phpweather)
Airport Radio Frequencies
ATIS: 126.02
Tower: 118, 120.1
Nearby VORs <50NM
Nearby NDBs
Runway 17 / 35
Dimensions:2800.3 x 45.1m 9187' x 148'ft
Surface:Asphalt
Edge Lights:High intensity
Runway 17 [A]Runway 35 [B]
Heading:177°TH 357°TH
Lat:
Lng:
68° 30' 14.06"N
16° 40' 36"E
68° 28' 43.3"N
16° 40' 46.38"E
ALS:RAILMALS
User Notes and Comments
68° 29' 28.68" N / 16° 40' 41.19" E
Distance To
Airport ID:
Nearby Airports
(U) Narvik Framnes 18.4 NM
ENNK ( WX ) E 101°
(C) Stokmarknes Skagen 42.3 NM
ENSK W 278°
(U) Svolvaer Helle 54.0 NM
ENSH ( WX ) WSW 251°
4 Engeloy 56.4 NM
ENEN SW 230°
(C) ANDOYA 57.2 NM
ENAN NNW 346°
(C) Bardufoss 60.7 NM
ENDU ( WX ) NE 50°
(U) Leknes 81.7 NM
ENLK ( WX ) WSW 253°
VFR Chart
Flight Planning at SkyVector.com